createdAt,value
2018-12-11T00:00:10.396Z,21.75
2018-12-11T00:02:39.643Z,30.60
2018-12-11T00:05:08.279Z,21.48
2018-12-11T00:07:36.972Z,20.82
2018-12-11T00:10:06.217Z,31.07
2018-12-11T00:12:35.389Z,31.77
2018-12-11T00:15:05.104Z,22.22
2018-12-11T00:17:34.666Z,26.23
2018-12-11T00:20:03.739Z,27.65
2018-12-11T00:22:33.012Z,32.15
2018-12-11T00:25:02.193Z,36.05
2018-12-11T00:27:31.282Z,36.85
2018-12-11T00:30:00.583Z,28.17
2018-12-11T00:32:29.721Z,29.82
2018-12-11T00:34:59.027Z,36.83
2018-12-11T00:37:28.780Z,35.55
2018-12-11T00:39:58.270Z,30.02
2018-12-11T00:42:26.935Z,27.10
2018-12-11T00:44:56.208Z,33.48
2018-12-11T00:47:25.573Z,41.33
2018-12-11T00:49:54.803Z,35.33
2018-12-11T00:52:24.621Z,38.50
2018-12-11T00:54:53.380Z,46.68
2018-12-11T00:57:22.839Z,39.03
2018-12-11T00:59:52.301Z,37.70
2018-12-11T01:02:21.656Z,36.93
2018-12-11T01:04:50.943Z,38.83
2018-12-11T01:07:19.894Z,29.20
2018-12-11T01:09:49.361Z,42.73
2018-12-11T01:12:18.744Z,42.48
2018-12-11T01:14:48.417Z,45.52
2018-12-11T01:17:18.004Z,36.88
2018-12-11T01:19:47.540Z,42.13
2018-12-11T01:22:16.627Z,42.35
2018-12-11T01:24:45.921Z,33.80
2018-12-11T01:27:15.421Z,36.60
2018-12-11T01:29:45.948Z,42.10
2018-12-11T01:32:15.708Z,64.32
2018-12-11T01:34:44.348Z,52.78
2018-12-11T01:37:13.508Z,43.80
2018-12-11T01:39:42.655Z,47.58
2018-12-11T01:42:11.735Z,35.33
2018-12-11T01:44:40.804Z,41.60
2018-12-11T01:47:09.831Z,34.83
2018-12-11T01:49:39.152Z,38.35
2018-12-11T01:52:08.178Z,31.57
2018-12-11T01:54:37.511Z,36.58
2018-12-11T01:57:06.860Z,38.33
2018-12-11T01:59:35.911Z,30.52
2018-12-11T02:02:05.231Z,41.80
2018-12-11T02:04:34.310Z,30.45
2018-12-11T02:07:03.656Z,29.92
2018-12-11T02:09:32.925Z,31.27
2018-12-11T02:12:02.041Z,36.48
2018-12-11T02:14:30.758Z,33.60
2018-12-11T02:16:59.731Z,30.32
2018-12-11T02:19:28.551Z,24.23
2018-12-11T02:21:58.305Z,27.60
2018-12-11T02:24:27.054Z,29.77
2018-12-11T02:26:56.044Z,26.35
2018-12-11T02:29:25.162Z,30.55
2018-12-11T02:31:54.227Z,32.65
2018-12-11T02:34:22.893Z,26.68
2018-12-11T02:36:51.576Z,33.10
2018-12-11T02:39:20.262Z,32.88
2018-12-11T02:41:49.411Z,27.00
2018-12-11T02:44:18.677Z,30.82
2018-12-11T02:46:47.932Z,30.43
2018-12-11T02:49:17.372Z,31.50
2018-12-11T02:51:46.483Z,30.92
2018-12-11T02:54:15.574Z,31.10
2018-12-11T02:56:44.263Z,27.45
2018-12-11T02:59:12.891Z,25.08
2018-12-11T03:01:41.543Z,35.68
2018-12-11T03:04:10.232Z,29.00
2018-12-11T03:06:38.879Z,24.60
2018-12-11T03:09:07.901Z,26.50
2018-12-11T03:11:37.542Z,30.70
2018-12-11T03:14:06.231Z,35.85
2018-12-11T03:16:34.940Z,36.08
2018-12-11T03:19:04.531Z,38.78
2018-12-11T03:21:33.559Z,30.90
2018-12-11T03:24:02.728Z,30.25
2018-12-11T03:26:32.197Z,32.83
2018-12-11T03:29:01.251Z,34.53
2018-12-11T03:31:30.183Z,37.10
2018-12-11T03:33:58.871Z,30.90
2018-12-11T03:36:27.597Z,33.98
2018-12-11T03:38:56.292Z,29.10
2018-12-11T03:41:24.968Z,30.00
2018-12-11T03:43:53.637Z,30.48
2018-12-11T03:46:22.368Z,37.23
2018-12-11T03:48:51.023Z,38.60
2018-12-11T03:51:20.916Z,37.98
2018-12-11T03:53:50.634Z,28.67
2018-12-11T03:56:19.993Z,33.08
2018-12-11T03:58:48.666Z,27.58
2018-12-11T04:01:17.369Z,27.85
2018-12-11T04:03:46.407Z,30.05
2018-12-11T04:06:15.525Z,32.90
2018-12-11T04:08:44.828Z,27.05
2018-12-11T04:11:13.892Z,39.80
2018-12-11T04:13:43.199Z,30.77
2018-12-11T04:16:11.892Z,30.90
2018-12-11T04:18:40.593Z,34.38
2018-12-11T04:21:09.547Z,26.90
2018-12-11T04:23:38.221Z,23.50
2018-12-11T04:26:06.876Z,32.90
2018-12-11T04:28:35.609Z,24.30
2018-12-11T04:31:04.458Z,34.13
2018-12-11T04:33:33.273Z,26.33
2018-12-11T04:36:01.929Z,29.55
2018-12-11T04:38:30.682Z,31.52
2018-12-11T04:41:00.543Z,28.32
2018-12-11T04:43:29.843Z,33.30
2018-12-11T04:45:58.999Z,24.20
2018-12-11T04:48:28.451Z,25.25
2018-12-11T04:50:57.462Z,26.60
2018-12-11T04:53:26.835Z,45.73
2018-12-11T04:55:55.555Z,26.77
2018-12-11T04:58:24.317Z,27.70
2018-12-11T05:00:53.172Z,37.05
2018-12-11T05:03:22.121Z,44.15
2018-12-11T05:05:51.214Z,51.28
2018-12-11T05:08:20.322Z,56.37
2018-12-11T05:10:49.819Z,119.67
2018-12-11T05:13:18.925Z,120.28
2018-12-11T05:15:47.632Z,96.25
2018-12-11T05:18:16.274Z,102.62
2018-12-11T05:20:45.583Z,104.80
2018-12-11T05:23:14.931Z,92.75
2018-12-11T05:25:44.156Z,58.95
2018-12-11T05:28:13.555Z,87.57
2018-12-11T05:30:42.847Z,84.58
2018-12-11T05:33:12.273Z,68.10
2018-12-11T05:35:41.637Z,69.87
2018-12-11T05:38:10.918Z,76.12
2018-12-11T05:40:40.151Z,39.90
2018-12-11T05:43:09.676Z,41.00
2018-12-11T05:45:39.104Z,54.38
2018-12-11T05:48:08.259Z,49.55
2018-12-11T05:50:37.795Z,42.45
2018-12-11T05:53:06.500Z,41.40
2018-12-11T05:55:35.779Z,54.05
2018-12-11T05:58:04.407Z,73.50
2018-12-11T06:00:33.157Z,57.38
2018-12-11T06:03:01.831Z,44.45
2018-12-11T06:05:30.915Z,57.80
2018-12-11T06:08:00.198Z,77.72
2018-12-11T06:10:29.567Z,104.72
2018-12-11T06:12:58.790Z,134.20
2018-12-11T06:15:27.817Z,226.35
2018-12-11T06:17:57.109Z,122.87
2018-12-11T06:20:26.422Z,101.72
2018-12-11T06:22:55.725Z,86.57
2018-12-11T06:25:25.249Z,114.10
2018-12-11T06:27:54.367Z,87.72
2018-12-11T06:30:23.621Z,71.40
2018-12-11T06:32:52.675Z,72.78
2018-12-11T06:35:21.775Z,77.92
2018-12-11T06:37:50.919Z,72.42
2018-12-11T06:40:19.977Z,86.78
2018-12-11T06:42:48.617Z,68.42
2018-12-11T06:45:17.274Z,43.75
2018-12-11T06:47:46.566Z,70.28
2018-12-11T06:50:15.248Z,91.87
2018-12-11T06:52:44.547Z,43.40
2018-12-11T06:55:14.222Z,59.93
2018-12-11T06:57:43.391Z,45.48
2018-12-11T07:00:12.758Z,56.95
2018-12-11T07:02:42.066Z,42.25
2018-12-11T07:05:11.108Z,74.20
2018-12-11T07:07:40.169Z,42.27
2018-12-11T07:10:09.271Z,44.95
2018-12-11T07:12:38.499Z,45.67
2018-12-11T07:15:07.812Z,37.75
2018-12-11T07:17:37.320Z,37.53
2018-12-11T07:20:07.327Z,43.87
2018-12-11T07:22:36.187Z,52.93
2018-12-11T07:25:05.435Z,59.67
2018-12-11T07:27:35.093Z,66.82
2018-12-11T07:30:04.466Z,60.10
2018-12-11T07:32:33.167Z,58.58
2018-12-11T07:35:02.491Z,57.25
2018-12-11T07:37:31.552Z,45.50
2018-12-11T07:40:00.994Z,39.85
2018-12-11T07:42:30.159Z,29.32
2018-12-11T07:44:59.663Z,27.67
2018-12-11T07:47:28.810Z,25.72
2018-12-11T07:49:58.175Z,26.65
2018-12-11T07:52:27.527Z,23.02
2018-12-11T07:54:56.829Z,27.95
2018-12-11T07:57:26.072Z,25.02
2018-12-11T07:59:55.276Z,22.10
2018-12-11T08:02:24.819Z,19.87
2018-12-11T08:04:53.985Z,19.92
2018-12-11T08:07:23.485Z,19.55
2018-12-11T08:09:52.178Z,20.02
2018-12-11T08:12:20.964Z,17.30
2018-12-11T08:14:49.631Z,16.15
2018-12-11T08:17:18.347Z,13.85
2018-12-11T08:19:47.708Z,18.23
2018-12-11T08:22:17.013Z,30.20
2018-12-11T08:24:46.341Z,19.40
2018-12-11T08:27:15.624Z,39.20
2018-12-11T08:29:45.034Z,28.50
2018-12-11T08:32:14.206Z,19.37
2018-12-11T08:34:43.659Z,21.37
2018-12-11T08:37:12.773Z,25.57
2018-12-11T08:39:41.874Z,21.05
2018-12-11T08:42:11.134Z,22.17
2018-12-11T08:44:40.656Z,21.73
2018-12-11T08:47:10.138Z,18.42
2018-12-11T08:49:39.217Z,16.62
2018-12-11T08:52:08.772Z,17.15
2018-12-11T08:54:38.064Z,16.55
2018-12-11T08:57:07.355Z,17.45
2018-12-11T08:59:36.652Z,14.40
2018-12-11T09:02:05.806Z,15.05
2018-12-11T09:04:34.962Z,17.05
2018-12-11T09:07:04.052Z,18.20
2018-12-11T09:09:33.475Z,16.50
2018-12-11T09:12:03.029Z,15.03
2018-12-11T09:14:32.147Z,15.48
2018-12-11T09:17:01.445Z,19.65
2018-12-11T09:19:30.672Z,15.03
2018-12-11T09:21:59.816Z,18.87
2018-12-11T09:24:28.876Z,23.25
2018-12-11T09:26:58.114Z,20.25
2018-12-11T09:29:27.450Z,20.55
2018-12-11T09:31:56.449Z,23.32
2018-12-11T09:34:25.720Z,31.33
2018-12-11T09:36:55.057Z,20.37
2018-12-11T09:39:23.689Z,18.87
2018-12-11T09:41:52.298Z,25.25
2018-12-11T09:44:20.981Z,21.82
2018-12-11T09:46:50.108Z,18.05
2018-12-11T09:49:19.635Z,18.65
2018-12-11T09:51:48.841Z,28.00
2018-12-11T09:54:18.170Z,24.75
2018-12-11T09:56:48.001Z,23.07
2018-12-11T09:59:23.241Z,21.55
2018-12-11T10:01:48.900Z,21.10
2018-12-11T10:04:18.154Z,25.65
2018-12-11T10:06:47.327Z,20.82
2018-12-11T10:09:16.376Z,27.25
2018-12-11T10:11:45.781Z,21.50
2018-12-11T10:14:14.776Z,20.88
2018-12-11T10:16:43.871Z,20.77
2018-12-11T10:19:12.952Z,21.77
2018-12-11T10:21:41.628Z,19.20
2018-12-11T10:24:10.247Z,34.05
2018-12-11T10:26:38.912Z,28.65
2018-12-11T10:29:07.766Z,24.15
2018-12-11T10:31:36.904Z,23.12
2018-12-11T10:34:06.401Z,23.30
2018-12-11T10:36:35.336Z,25.40
2018-12-11T10:39:06.377Z,36.55
2018-12-11T10:41:35.557Z,26.07
2018-12-11T10:44:05.036Z,24.70
2018-12-11T10:46:34.075Z,31.30
2018-12-11T10:49:03.345Z,30.35
2018-12-11T10:51:32.674Z,17.42
2018-12-11T10:54:01.572Z,25.45
2018-12-11T10:56:30.756Z,22.52
2018-12-11T10:58:59.718Z,25.90
2018-12-11T11:01:28.783Z,24.67
2018-12-11T11:03:57.468Z,28.60
2018-12-11T11:06:26.233Z,20.37
2018-12-11T11:08:55.392Z,33.95
2018-12-11T11:11:24.691Z,31.80
2018-12-11T11:13:53.757Z,27.10
2018-12-11T11:16:22.864Z,24.30
2018-12-11T11:18:52.398Z,27.93
2018-12-11T11:21:21.623Z,32.53
2018-12-11T11:23:50.663Z,30.35
2018-12-11T11:26:19.746Z,34.85
2018-12-11T11:28:48.848Z,24.52
2018-12-11T11:31:18.220Z,23.98
2018-12-11T11:33:47.296Z,22.65
2018-12-11T11:36:16.753Z,23.12
2018-12-11T11:38:46.048Z,20.77
2018-12-11T11:41:15.340Z,24.55
2018-12-11T11:43:44.148Z,21.90
2018-12-11T11:46:13.199Z,27.75
2018-12-11T11:48:42.122Z,25.27
2018-12-11T11:51:10.733Z,23.22
2018-12-11T11:53:39.327Z,20.60
2018-12-11T11:56:07.974Z,27.48
2018-12-11T11:58:36.612Z,21.33
2018-12-11T12:01:05.871Z,18.67
2018-12-11T12:03:34.953Z,20.57
2018-12-11T12:06:04.007Z,16.77
2018-12-11T12:08:33.165Z,21.70
2018-12-11T12:11:02.269Z,31.20
2018-12-11T12:13:31.547Z,26.42
2018-12-11T12:16:00.451Z,26.17
2018-12-11T12:18:29.356Z,26.97
2018-12-11T12:20:58.454Z,28.42
2018-12-11T12:23:27.666Z,26.00
2018-12-11T12:25:56.814Z,31.42
2018-12-11T12:28:25.859Z,27.65
2018-12-11T12:30:55.523Z,36.77
2018-12-11T12:33:24.151Z,33.65
2018-12-11T12:35:52.764Z,21.80
2018-12-11T12:38:22.124Z,20.97
2018-12-11T12:40:50.767Z,34.73
2018-12-11T12:43:19.396Z,30.72
2018-12-11T12:45:48.399Z,30.15
2018-12-11T12:48:17.750Z,22.55
2018-12-11T12:50:47.014Z,23.77
2018-12-11T12:53:16.279Z,32.67
2018-12-11T12:55:45.417Z,24.63
2018-12-11T12:58:15.007Z,35.68
2018-12-11T13:00:44.188Z,35.13
2018-12-11T13:03:13.515Z,27.02
2018-12-11T13:05:42.788Z,24.50
2018-12-11T13:08:11.871Z,25.52
2018-12-11T13:10:41.683Z,32.42
2018-12-11T13:13:10.742Z,35.58
2018-12-11T13:15:40.056Z,24.70
2018-12-11T13:18:09.302Z,24.02
2018-12-11T13:20:37.953Z,26.35
2018-12-11T13:23:06.563Z,36.10
2018-12-11T13:25:35.577Z,26.37
2018-12-11T13:28:04.651Z,29.77
2018-12-11T13:30:33.776Z,25.20
2018-12-11T13:33:03.085Z,20.82
2018-12-11T13:35:32.388Z,32.25
2018-12-11T13:38:01.856Z,22.55
2018-12-11T13:40:31.865Z,32.53
2018-12-11T13:43:01.054Z,27.85
2018-12-11T13:45:30.187Z,26.68
2018-12-11T13:47:59.470Z,29.02
2018-12-11T13:50:28.778Z,29.48
2018-12-11T13:52:58.276Z,27.02
2018-12-11T13:55:27.553Z,33.23
2018-12-11T13:57:56.871Z,25.00
2018-12-11T14:00:26.146Z,25.55
2018-12-11T14:02:55.404Z,22.98
2018-12-11T14:05:24.778Z,20.43
2018-12-11T14:07:53.412Z,18.67
2018-12-11T14:10:22.066Z,20.72
2018-12-11T14:12:50.719Z,21.37
2018-12-11T14:15:19.366Z,18.73
2018-12-11T14:17:48.527Z,20.85
2018-12-11T14:20:17.608Z,16.67
2018-12-11T14:22:46.927Z,14.25
2018-12-11T14:25:16.049Z,19.02
2018-12-11T14:27:45.222Z,18.27
2018-12-11T14:30:14.267Z,15.95
2018-12-11T14:32:43.605Z,18.62
2018-12-11T14:35:13.127Z,16.70
2018-12-11T14:37:42.404Z,14.10
2018-12-11T14:40:11.499Z,19.90
2018-12-11T14:42:40.760Z,27.93
2018-12-11T14:45:09.442Z,14.05
2018-12-11T14:47:38.553Z,15.40
2018-12-11T14:50:07.517Z,14.53
2018-12-11T14:52:36.514Z,16.05
2018-12-11T14:55:06.464Z,15.65
2018-12-11T14:57:35.802Z,18.42
2018-12-11T15:00:05.880Z,12.70
2018-12-11T15:02:35.525Z,13.05
2018-12-11T15:05:04.927Z,14.35
2018-12-11T15:07:34.213Z,14.83
2018-12-11T15:10:03.609Z,14.47
2018-12-11T15:12:33.036Z,13.35
2018-12-11T15:15:02.240Z,9.58
2018-12-11T15:17:31.439Z,11.33
2018-12-11T15:20:00.319Z,10.32
2018-12-11T15:22:29.345Z,8.90
2018-12-11T15:24:58.509Z,10.93
2018-12-11T15:27:27.529Z,8.48
2018-12-11T15:29:56.858Z,6.90
2018-12-11T15:32:25.491Z,7.60
2018-12-11T15:34:54.141Z,7.90
2018-12-11T15:37:22.776Z,5.97
2018-12-11T15:39:51.424Z,9.18
2018-12-11T15:42:20.652Z,9.65
2018-12-11T15:44:50.152Z,8.35
2018-12-11T15:47:19.746Z,8.95
2018-12-11T15:49:48.971Z,6.70
2018-12-11T15:52:18.087Z,5.78
2018-12-11T15:54:47.149Z,6.45
2018-12-11T15:57:16.693Z,7.80
2018-12-11T15:59:46.180Z,7.15
2018-12-11T16:02:15.514Z,6.28
2018-12-11T16:04:44.543Z,7.25
2018-12-11T16:07:14.097Z,5.83
2018-12-11T16:09:43.635Z,6.17
2018-12-11T16:12:12.666Z,4.10
2018-12-11T16:14:41.273Z,4.80
2018-12-11T16:17:10.656Z,3.75
2018-12-11T16:19:39.994Z,2.27
2018-12-11T16:22:08.634Z,4.83
2018-12-11T16:24:37.277Z,6.55
2018-12-11T16:27:06.547Z,4.37
2018-12-11T16:29:35.606Z,4.75
2018-12-11T16:32:04.713Z,3.00
2018-12-11T16:34:34.012Z,4.65
2018-12-11T16:37:03.517Z,4.53
2018-12-11T16:39:32.912Z,3.40
2018-12-11T16:42:02.198Z,4.00
2018-12-11T16:44:31.281Z,3.12
2018-12-11T16:47:00.783Z,2.30
2018-12-11T16:49:29.935Z,3.60
2018-12-11T16:51:58.924Z,3.00
2018-12-11T16:54:28.226Z,3.50
2018-12-11T16:56:57.303Z,2.90
2018-12-11T16:59:25.926Z,2.87
2018-12-11T17:01:54.580Z,2.77
2018-12-11T17:04:23.263Z,2.73
2018-12-11T17:06:51.874Z,3.30
2018-12-11T17:09:20.523Z,5.20
2018-12-11T17:11:49.779Z,3.62
2018-12-11T17:14:18.903Z,4.13
2018-12-11T17:16:48.232Z,4.75
2018-12-11T17:19:17.284Z,2.50
2018-12-11T17:21:47.046Z,2.33
2018-12-11T17:24:16.600Z,2.83
2018-12-11T17:26:45.919Z,2.40
2018-12-11T17:29:15.196Z,3.08
2018-12-11T17:31:44.325Z,2.23
2018-12-11T17:34:13.573Z,3.00
2018-12-11T17:36:42.980Z,2.40
2018-12-11T17:39:12.227Z,3.13
2018-12-11T17:41:41.684Z,2.70
2018-12-11T17:44:10.305Z,3.47
2018-12-11T17:46:39.100Z,2.62
2018-12-11T17:49:08.560Z,3.05
2018-12-11T17:51:37.363Z,2.20
2018-12-11T17:54:05.992Z,2.40
2018-12-11T17:56:35.500Z,2.73
2018-12-11T17:59:04.784Z,3.00
2018-12-11T18:01:34.458Z,2.70
2018-12-11T18:04:03.824Z,2.93
2018-12-11T18:06:33.120Z,2.00
2018-12-11T18:09:02.383Z,2.63
2018-12-11T18:11:31.738Z,2.30
2018-12-11T18:14:01.128Z,3.08
2018-12-11T18:16:30.926Z,2.27
2018-12-11T18:19:00.435Z,2.40
2018-12-11T18:21:29.485Z,2.93
2018-12-11T18:23:58.567Z,3.53
2018-12-11T18:26:27.756Z,3.63
2018-12-11T18:28:56.397Z,2.60
2018-12-11T18:31:25.058Z,4.55
2018-12-11T18:33:53.732Z,3.67
2018-12-11T18:36:22.391Z,4.23
2018-12-11T18:38:51.033Z,3.00
2018-12-11T18:41:20.177Z,2.60
2018-12-11T18:43:49.547Z,3.13
2018-12-11T18:46:18.558Z,3.97
2018-12-11T18:48:47.795Z,2.93
2018-12-11T18:51:17.320Z,6.90
2018-12-11T18:53:46.350Z,2.80
2018-12-11T18:56:15.678Z,4.43
2018-12-11T18:58:44.839Z,5.30
2018-12-11T19:01:14.940Z,4.40
2018-12-11T19:03:49.306Z,3.03
2018-12-11T19:06:15.851Z,4.53
2018-12-11T19:08:45.108Z,4.23
2018-12-11T19:11:14.231Z,3.93
2018-12-11T19:13:43.354Z,3.87
2018-12-11T19:16:13.135Z,8.63
2018-12-11T19:18:42.297Z,4.70
2018-12-11T19:21:11.433Z,4.00
2018-12-11T19:23:40.823Z,6.00
2018-12-11T19:26:10.284Z,6.30
2018-12-11T19:28:39.535Z,3.67
2018-12-11T19:31:08.639Z,6.33
2018-12-11T19:33:38.165Z,6.30
2018-12-11T19:36:07.476Z,8.60
2018-12-11T19:38:36.407Z,6.80
2018-12-11T19:41:05.541Z,4.83
2018-12-11T19:43:34.649Z,3.67
2018-12-11T19:46:03.879Z,4.10
2018-12-11T19:48:33.184Z,3.60
2018-12-11T19:51:02.308Z,4.60
2018-12-11T19:53:31.290Z,5.07
2018-12-11T19:55:59.912Z,4.30
2018-12-11T19:58:28.982Z,3.17
2018-12-11T20:00:57.604Z,5.93
2018-12-11T20:03:26.282Z,5.97
2018-12-11T20:05:55.580Z,4.33
2018-12-11T20:08:30.867Z,3.77
2018-12-11T20:10:56.156Z,4.63
2018-12-11T20:13:25.481Z,3.40
2018-12-11T20:15:54.774Z,3.23
2018-12-11T20:18:24.102Z,5.00
2018-12-11T20:20:53.377Z,5.30
2018-12-11T20:23:22.435Z,4.67
2018-12-11T20:25:51.367Z,4.73
2018-12-11T20:28:20.699Z,3.83
2018-12-11T20:30:49.736Z,4.20
2018-12-11T20:33:19.102Z,3.60
2018-12-11T20:35:48.336Z,5.00
2018-12-11T20:38:17.611Z,4.93
2018-12-11T20:40:46.523Z,3.57
2018-12-11T20:43:15.463Z,5.07
2018-12-11T20:45:44.085Z,6.10
2018-12-11T20:48:12.710Z,4.20
2018-12-11T20:50:41.331Z,5.20
2018-12-11T20:53:10.256Z,4.43
2018-12-11T20:55:39.771Z,5.33
2018-12-11T20:58:09.086Z,4.27
2018-12-11T21:00:38.183Z,4.10
2018-12-11T21:03:07.132Z,5.20
2018-12-11T21:05:36.467Z,4.80
2018-12-11T21:08:05.523Z,5.63
2018-12-11T21:10:34.629Z,4.37
2018-12-11T21:13:03.877Z,5.23
2018-12-11T21:15:32.895Z,4.60
2018-12-11T21:18:02.031Z,3.87
2018-12-11T21:20:31.185Z,4.37
2018-12-11T21:23:00.414Z,3.70
2018-12-11T21:25:29.053Z,3.57
2018-12-11T21:27:58.676Z,4.60
2018-12-11T21:30:27.721Z,5.00
2018-12-11T21:32:57.266Z,5.17
2018-12-11T21:35:26.551Z,5.03
2018-12-11T21:37:55.824Z,5.53
2018-12-11T21:40:25.139Z,5.00
2018-12-11T21:42:54.092Z,5.13
2018-12-11T21:45:23.645Z,4.90
2018-12-11T21:47:52.913Z,4.70
2018-12-11T21:50:22.023Z,5.93
2018-12-11T21:52:51.012Z,4.03
2018-12-11T21:55:20.354Z,4.00
2018-12-11T21:57:49.803Z,4.33
2018-12-11T22:00:18.985Z,6.03
2018-12-11T22:02:48.582Z,7.70
2018-12-11T22:05:17.726Z,6.53
2018-12-11T22:07:46.776Z,6.67
2018-12-11T22:10:15.514Z,5.30
2018-12-11T22:12:45.153Z,5.00
2018-12-11T22:15:13.792Z,5.57
2018-12-11T22:17:42.453Z,5.87
2018-12-11T22:20:11.524Z,5.70
2018-12-11T22:22:40.714Z,7.77
2018-12-11T22:25:10.089Z,6.20
2018-12-11T22:27:39.283Z,5.83
2018-12-11T22:30:08.517Z,4.07
2018-12-11T22:32:37.612Z,3.67
2018-12-11T22:35:06.719Z,3.43
2018-12-11T22:37:36.036Z,4.97
2018-12-11T22:40:05.515Z,4.60
2018-12-11T22:42:34.907Z,6.33
2018-12-11T22:45:12.787Z,3.80
2018-12-11T22:47:42.325Z,4.57
2018-12-11T22:50:11.729Z,4.37
2018-12-11T22:52:41.432Z,3.00
2018-12-11T22:55:10.104Z,3.37
2018-12-11T22:57:38.773Z,3.60
2018-12-11T23:00:10.576Z,3.03
2018-12-11T23:02:40.778Z,5.93
2018-12-11T23:05:10.093Z,6.47
2018-12-11T23:07:39.111Z,7.00
2018-12-11T23:10:08.409Z,10.77
2018-12-11T23:12:37.716Z,5.77
2018-12-11T23:15:07.625Z,8.90
2018-12-11T23:17:36.888Z,5.53
2018-12-11T23:20:06.048Z,5.83
2018-12-11T23:22:35.108Z,4.90
2018-12-11T23:25:04.613Z,3.90
2018-12-11T23:27:34.545Z,4.90
2018-12-11T23:30:03.626Z,2.83
2018-12-11T23:32:32.783Z,2.57
2018-12-11T23:35:02.448Z,4.63
2018-12-11T23:37:31.609Z,4.00
2018-12-11T23:40:00.711Z,4.20
2018-12-11T23:42:30.016Z,3.13
2018-12-11T23:44:58.665Z,3.60
2018-12-11T23:47:27.302Z,4.30
2018-12-11T23:49:56.266Z,3.77
2018-12-11T23:52:25.546Z,3.33
2018-12-11T23:54:54.871Z,3.70
2018-12-11T23:57:24.155Z,4.03
2018-12-11T23:59:52.806Z,3.77
